sensor_id;sensor_type;location;lat;lon;timestamp;P1;durP1;ratioP1;P2;durP2;ratioP2
55794;SDS011;41716;51.910;4.430;2023-05-14T00:04:06;16.77;;;10.02;;
55794;SDS011;41716;51.910;4.430;2023-05-14T00:09:08;15.03;;;9.40;;
55794;SDS011;41716;51.910;4.430;2023-05-14T00:14:10;17.17;;;9.00;;
55794;SDS011;41716;51.910;4.430;2023-05-14T00:19:13;14.23;;;9.02;;
55794;SDS011;41716;51.910;4.430;2023-05-14T00:24:15;13.90;;;8.83;;
55794;SDS011;41716;51.910;4.430;2023-05-14T00:29:16;13.50;;;8.30;;
55794;SDS011;41716;51.910;4.430;2023-05-14T00:34:19;16.25;;;8.68;;
55794;SDS011;41716;51.910;4.430;2023-05-14T00:39:21;13.83;;;8.73;;
55794;SDS011;41716;51.910;4.430;2023-05-14T00:44:23;13.35;;;8.73;;
55794;SDS011;41716;51.910;4.430;2023-05-14T00:49:25;14.50;;;8.93;;
55794;SDS011;41716;51.910;4.430;2023-05-14T00:54:28;17.25;;;8.45;;
55794;SDS011;41716;51.910;4.430;2023-05-14T00:59:30;15.27;;;9.57;;
55794;SDS011;41716;51.910;4.430;2023-05-14T01:04:33;15.80;;;8.05;;
55794;SDS011;41716;51.910;4.430;2023-05-14T01:09:35;13.63;;;8.40;;
55794;SDS011;41716;51.910;4.430;2023-05-14T01:14:43;15.40;;;8.07;;
55794;SDS011;41716;51.910;4.430;2023-05-14T01:19:52;13.57;;;8.05;;
55794;SDS011;41716;51.910;4.430;2023-05-14T01:24:56;13.68;;;8.25;;
55794;SDS011;41716;51.910;4.430;2023-05-14T01:30:00;11.70;;;7.73;;
55794;SDS011;41716;51.910;4.430;2023-05-14T01:35:07;14.77;;;7.93;;
55794;SDS011;41716;51.910;4.430;2023-05-14T01:40:12;11.32;;;7.75;;
55794;SDS011;41716;51.910;4.430;2023-05-14T01:45:14;12.57;;;7.38;;
55794;SDS011;41716;51.910;4.430;2023-05-14T01:50:16;14.15;;;8.20;;
55794;SDS011;41716;51.910;4.430;2023-05-14T01:55:19;11.85;;;7.65;;
55794;SDS011;41716;51.910;4.430;2023-05-14T02:00:22;13.32;;;8.20;;
55794;SDS011;41716;51.910;4.430;2023-05-14T02:05:25;15.80;;;8.43;;
55794;SDS011;41716;51.910;4.430;2023-05-14T02:10:28;15.88;;;8.35;;
55794;SDS011;41716;51.910;4.430;2023-05-14T02:15:29;14.33;;;8.20;;
55794;SDS011;41716;51.910;4.430;2023-05-14T02:20:31;17.67;;;8.23;;
55794;SDS011;41716;51.910;4.430;2023-05-14T02:25:34;14.75;;;8.38;;
55794;SDS011;41716;51.910;4.430;2023-05-14T02:30:36;15.48;;;9.40;;
55794;SDS011;41716;51.910;4.430;2023-05-14T02:35:37;14.85;;;9.43;;
55794;SDS011;41716;51.910;4.430;2023-05-14T02:40:40;14.15;;;8.35;;
55794;SDS011;41716;51.910;4.430;2023-05-14T02:45:42;16.87;;;8.80;;
55794;SDS011;41716;51.910;4.430;2023-05-14T02:50:43;17.35;;;8.35;;
55794;SDS011;41716;51.910;4.430;2023-05-14T02:55:47;15.95;;;8.98;;
55794;SDS011;41716;51.910;4.430;2023-05-14T03:00:49;15.13;;;7.77;;
55794;SDS011;41716;51.910;4.430;2023-05-14T03:05:51;14.95;;;8.60;;
55794;SDS011;41716;51.910;4.430;2023-05-14T03:10:54;15.60;;;9.10;;
55794;SDS011;41716;51.910;4.430;2023-05-14T03:15:55;18.03;;;9.07;;
55794;SDS011;41716;51.910;4.430;2023-05-14T03:20:57;17.20;;;9.23;;
55794;SDS011;41716;51.910;4.430;2023-05-14T03:26:00;19.25;;;9.70;;
55794;SDS011;41716;51.910;4.430;2023-05-14T03:31:02;13.90;;;8.13;;
55794;SDS011;41716;51.910;4.430;2023-05-14T03:36:04;13.70;;;8.65;;
55794;SDS011;41716;51.910;4.430;2023-05-14T03:41:07;17.75;;;8.68;;
55794;SDS011;41716;51.910;4.430;2023-05-14T03:46:09;16.20;;;8.90;;
55794;SDS011;41716;51.910;4.430;2023-05-14T03:51:11;16.45;;;9.05;;
55794;SDS011;41716;51.910;4.430;2023-05-14T03:56:14;16.48;;;8.30;;
55794;SDS011;41716;51.910;4.430;2023-05-14T04:01:15;12.63;;;8.37;;
55794;SDS011;41716;51.910;4.430;2023-05-14T04:06:17;17.48;;;9.23;;
55794;SDS011;41716;51.910;4.430;2023-05-14T04:11:20;14.60;;;8.88;;
55794;SDS011;41716;51.910;4.430;2023-05-14T04:16:22;18.43;;;8.87;;
55794;SDS011;41716;51.910;4.430;2023-05-14T04:21:24;15.02;;;8.07;;
55794;SDS011;41716;51.910;4.430;2023-05-14T04:26:27;12.52;;;7.88;;
55794;SDS011;41716;51.910;4.430;2023-05-14T04:31:29;14.43;;;6.97;;
55794;SDS011;41716;51.910;4.430;2023-05-14T04:36:31;12.32;;;7.63;;
55794;SDS011;41716;51.910;4.430;2023-05-14T04:41:34;9.73;;;6.68;;
55794;SDS011;41716;51.910;4.430;2023-05-14T04:46:36;15.07;;;7.30;;
55794;SDS011;41716;51.910;4.430;2023-05-14T04:51:37;13.20;;;7.40;;
55794;SDS011;41716;51.910;4.430;2023-05-14T04:56:41;14.52;;;7.63;;
55794;SDS011;41716;51.910;4.430;2023-05-14T05:01:42;11.67;;;6.70;;
55794;SDS011;41716;51.910;4.430;2023-05-14T05:06:44;13.30;;;7.03;;
55794;SDS011;41716;51.910;4.430;2023-05-14T05:11:47;10.98;;;7.07;;
55794;SDS011;41716;51.910;4.430;2023-05-14T05:16:49;13.90;;;7.07;;
55794;SDS011;41716;51.910;4.430;2023-05-14T05:21:51;13.13;;;6.78;;
55794;SDS011;41716;51.910;4.430;2023-05-14T05:26:54;11.00;;;6.25;;
55794;SDS011;41716;51.910;4.430;2023-05-14T05:31:56;11.57;;;6.73;;
55794;SDS011;41716;51.910;4.430;2023-05-14T05:36:58;13.90;;;6.88;;
55794;SDS011;41716;51.910;4.430;2023-05-14T05:42:01;13.13;;;7.07;;
55794;SDS011;41716;51.910;4.430;2023-05-14T05:47:03;15.18;;;7.22;;
55794;SDS011;41716;51.910;4.430;2023-05-14T05:52:05;12.25;;;7.55;;
55794;SDS011;41716;51.910;4.430;2023-05-14T05:57:08;16.33;;;8.32;;
55794;SDS011;41716;51.910;4.430;2023-05-14T06:02:10;16.47;;;9.13;;
55794;SDS011;41716;51.910;4.430;2023-05-14T06:07:11;18.88;;;10.10;;
55794;SDS011;41716;51.910;4.430;2023-05-14T06:12:14;19.73;;;11.60;;
55794;SDS011;41716;51.910;4.430;2023-05-14T06:17:16;19.60;;;11.68;;
55794;SDS011;41716;51.910;4.430;2023-05-14T06:22:18;21.88;;;12.85;;
55794;SDS011;41716;51.910;4.430;2023-05-14T06:27:21;27.38;;;13.23;;
55794;SDS011;41716;51.910;4.430;2023-05-14T06:32:23;21.73;;;11.93;;
55794;SDS011;41716;51.910;4.430;2023-05-14T06:37:24;23.08;;;12.57;;
55794;SDS011;41716;51.910;4.430;2023-05-14T06:42:27;22.75;;;12.98;;
55794;SDS011;41716;51.910;4.430;2023-05-14T06:47:29;18.40;;;11.00;;
55794;SDS011;41716;51.910;4.430;2023-05-14T06:52:31;18.38;;;10.75;;
55794;SDS011;41716;51.910;4.430;2023-05-14T06:57:34;15.60;;;9.68;;
55794;SDS011;41716;51.910;4.430;2023-05-14T07:02:36;12.52;;;7.82;;
55794;SDS011;41716;51.910;4.430;2023-05-14T07:07:37;13.20;;;7.53;;
55794;SDS011;41716;51.910;4.430;2023-05-14T07:12:40;10.20;;;6.63;;
55794;SDS011;41716;51.910;4.430;2023-05-14T07:17:42;14.30;;;7.10;;
55794;SDS011;41716;51.910;4.430;2023-05-14T07:22:43;12.35;;;6.45;;
55794;SDS011;41716;51.910;4.430;2023-05-14T07:27:46;11.23;;;6.57;;
55794;SDS011;41716;51.910;4.430;2023-05-14T07:32:48;8.77;;;6.00;;
55794;SDS011;41716;51.910;4.430;2023-05-14T07:37:50;15.65;;;7.20;;
55794;SDS011;41716;51.910;4.430;2023-05-14T07:42:53;13.25;;;7.22;;
55794;SDS011;41716;51.910;4.430;2023-05-14T07:47:55;17.83;;;8.43;;
55794;SDS011;41716;51.910;4.430;2023-05-14T07:52:57;12.25;;;6.75;;
55794;SDS011;41716;51.910;4.430;2023-05-14T07:58:00;8.48;;;5.15;;
55794;SDS011;41716;51.910;4.430;2023-05-14T08:03:01;10.33;;;6.00;;
55794;SDS011;41716;51.910;4.430;2023-05-14T08:08:04;8.70;;;4.72;;
55794;SDS011;41716;51.910;4.430;2023-05-14T08:13:07;8.57;;;5.40;;
55794;SDS011;41716;51.910;4.430;2023-05-14T08:18:09;11.63;;;4.95;;
55794;SDS011;41716;51.910;4.430;2023-05-14T08:23:10;9.20;;;4.60;;
55794;SDS011;41716;51.910;4.430;2023-05-14T08:28:14;8.82;;;4.65;;
55794;SDS011;41716;51.910;4.430;2023-05-14T08:33:15;10.77;;;5.00;;
55794;SDS011;41716;51.910;4.430;2023-05-14T08:38:18;11.27;;;4.13;;
55794;SDS011;41716;51.910;4.430;2023-05-14T08:43:21;10.38;;;4.47;;
55794;SDS011;41716;51.910;4.430;2023-05-14T08:48:27;9.43;;;4.50;;
55794;SDS011;41716;51.910;4.430;2023-05-14T08:53:32;10.82;;;4.05;;
55794;SDS011;41716;51.910;4.430;2023-05-14T08:58:35;5.95;;;2.88;;
55794;SDS011;41716;51.910;4.430;2023-05-14T09:03:36;11.13;;;3.90;;
55794;SDS011;41716;51.910;4.430;2023-05-14T09:08:39;8.35;;;3.58;;
55794;SDS011;41716;51.910;4.430;2023-05-14T09:13:42;8.50;;;3.58;;
55794;SDS011;41716;51.910;4.430;2023-05-14T09:18:44;10.98;;;3.58;;
55794;SDS011;41716;51.910;4.430;2023-05-14T09:23:46;7.97;;;3.50;;
55794;SDS011;41716;51.910;4.430;2023-05-14T09:28:50;7.72;;;3.80;;
55794;SDS011;41716;51.910;4.430;2023-05-14T09:33:53;7.10;;;3.20;;
55794;SDS011;41716;51.910;4.430;2023-05-14T09:38:55;9.27;;;3.63;;
55794;SDS011;41716;51.910;4.430;2023-05-14T09:43:59;8.07;;;4.00;;
55794;SDS011;41716;51.910;4.430;2023-05-14T09:49:01;10.77;;;4.07;;
55794;SDS011;41716;51.910;4.430;2023-05-14T09:54:03;8.57;;;3.38;;
55794;SDS011;41716;51.910;4.430;2023-05-14T09:59:07;8.95;;;2.90;;
55794;SDS011;41716;51.910;4.430;2023-05-14T10:04:08;8.07;;;3.23;;
55794;SDS011;41716;51.910;4.430;2023-05-14T10:09:12;6.10;;;3.17;;
55794;SDS011;41716;51.910;4.430;2023-05-14T10:14:19;7.85;;;2.90;;
55794;SDS011;41716;51.910;4.430;2023-05-14T10:19:24;6.32;;;3.22;;
55794;SDS011;41716;51.910;4.430;2023-05-14T10:24:27;6.10;;;3.35;;
55794;SDS011;41716;51.910;4.430;2023-05-14T10:29:31;6.82;;;3.30;;
55794;SDS011;41716;51.910;4.430;2023-05-14T10:39:41;8.07;;;2.97;;
55794;SDS011;41716;51.910;4.430;2023-05-14T10:44:49;7.40;;;3.20;;
55794;SDS011;41716;51.910;4.430;2023-05-14T10:49:52;8.13;;;3.65;;
55794;SDS011;41716;51.910;4.430;2023-05-14T10:59:59;8.77;;;3.30;;
55794;SDS011;41716;51.910;4.430;2023-05-14T11:05:02;5.73;;;2.67;;
55794;SDS011;41716;51.910;4.430;2023-05-14T11:10:05;9.13;;;3.10;;
55794;SDS011;41716;51.910;4.430;2023-05-14T11:15:10;7.53;;;3.27;;
55794;SDS011;41716;51.910;4.430;2023-05-14T11:20:13;6.45;;;3.65;;
55794;SDS011;41716;51.910;4.430;2023-05-14T11:25:15;7.72;;;3.28;;
55794;SDS011;41716;51.910;4.430;2023-05-14T11:30:19;8.15;;;3.88;;
55794;SDS011;41716;51.910;4.430;2023-05-14T11:35:21;6.63;;;3.20;;
55794;SDS011;41716;51.910;4.430;2023-05-14T11:40:23;6.32;;;3.20;;
55794;SDS011;41716;51.910;4.430;2023-05-14T11:45:26;6.05;;;3.10;;
55794;SDS011;41716;51.910;4.430;2023-05-14T11:50:28;9.02;;;3.35;;
55794;SDS011;41716;51.910;4.430;2023-05-14T11:55:32;10.32;;;3.50;;
55794;SDS011;41716;51.910;4.430;2023-05-14T12:00:36;7.88;;;2.80;;
55794;SDS011;41716;51.910;4.430;2023-05-14T12:05:38;9.13;;;3.83;;
55794;SDS011;41716;51.910;4.430;2023-05-14T12:10:40;6.35;;;3.53;;
55794;SDS011;41716;51.910;4.430;2023-05-14T12:15:45;5.18;;;3.28;;
55794;SDS011;41716;51.910;4.430;2023-05-14T12:20:47;7.53;;;3.38;;
55794;SDS011;41716;51.910;4.430;2023-05-14T12:25:50;5.27;;;3.13;;
55794;SDS011;41716;51.910;4.430;2023-05-14T12:30:55;8.30;;;4.10;;
55794;SDS011;41716;51.910;4.430;2023-05-14T12:35:58;6.25;;;3.10;;
55794;SDS011;41716;51.910;4.430;2023-05-14T12:41:01;8.37;;;3.90;;
55794;SDS011;41716;51.910;4.430;2023-05-14T12:46:04;5.53;;;3.20;;
55794;SDS011;41716;51.910;4.430;2023-05-14T12:51:05;4.60;;;2.67;;
55794;SDS011;41716;51.910;4.430;2023-05-14T12:56:07;6.32;;;3.17;;
55794;SDS011;41716;51.910;4.430;2023-05-14T13:01:10;9.45;;;4.57;;
55794;SDS011;41716;51.910;4.430;2023-05-14T13:06:12;5.97;;;2.78;;
55794;SDS011;41716;51.910;4.430;2023-05-14T13:11:14;9.63;;;3.28;;
55794;SDS011;41716;51.910;4.430;2023-05-14T13:16:17;10.85;;;3.53;;
55794;SDS011;41716;51.910;4.430;2023-05-14T13:21:19;7.57;;;3.37;;
55794;SDS011;41716;51.910;4.430;2023-05-14T13:26:21;6.68;;;3.75;;
55794;SDS011;41716;51.910;4.430;2023-05-14T13:31:26;8.23;;;3.80;;
55794;SDS011;41716;51.910;4.430;2023-05-14T13:36:28;11.47;;;4.50;;
55794;SDS011;41716;51.910;4.430;2023-05-14T13:41:31;7.22;;;3.88;;
55794;SDS011;41716;51.910;4.430;2023-05-14T13:46:35;8.93;;;4.38;;
55794;SDS011;41716;51.910;4.430;2023-05-14T13:51:37;7.50;;;3.63;;
55794;SDS011;41716;51.910;4.430;2023-05-14T13:56:39;11.10;;;4.20;;
55794;SDS011;41716;51.910;4.430;2023-05-14T14:01:42;7.43;;;4.20;;
55794;SDS011;41716;51.910;4.430;2023-05-14T14:06:44;6.63;;;3.57;;
55794;SDS011;41716;51.910;4.430;2023-05-14T14:11:46;15.48;;;6.00;;
55794;SDS011;41716;51.910;4.430;2023-05-14T14:16:49;6.18;;;3.95;;
55794;SDS011;41716;51.910;4.430;2023-05-14T14:21:51;10.70;;;4.03;;
55794;SDS011;41716;51.910;4.430;2023-05-14T14:26:52;9.48;;;3.75;;
55794;SDS011;41716;51.910;4.430;2023-05-14T14:31:56;4.53;;;3.42;;
55794;SDS011;41716;51.910;4.430;2023-05-14T14:36:57;7.23;;;3.70;;
55794;SDS011;41716;51.910;4.430;2023-05-14T14:41:59;8.25;;;3.50;;
55794;SDS011;41716;51.910;4.430;2023-05-14T14:47:02;10.07;;;3.75;;
55794;SDS011;41716;51.910;4.430;2023-05-14T14:52:04;8.20;;;3.72;;
55794;SDS011;41716;51.910;4.430;2023-05-14T14:57:06;6.95;;;3.00;;
55794;SDS011;41716;51.910;4.430;2023-05-14T15:02:09;7.20;;;2.78;;
55794;SDS011;41716;51.910;4.430;2023-05-14T15:07:11;4.93;;;2.70;;
55794;SDS011;41716;51.910;4.430;2023-05-14T15:12:14;6.55;;;3.08;;
55794;SDS011;41716;51.910;4.430;2023-05-14T15:17:17;5.82;;;2.47;;
55794;SDS011;41716;51.910;4.430;2023-05-14T15:22:19;6.77;;;2.93;;
55794;SDS011;41716;51.910;4.430;2023-05-14T15:27:21;7.40;;;2.50;;
55794;SDS011;41716;51.910;4.430;2023-05-14T15:32:24;7.63;;;3.00;;
55794;SDS011;41716;51.910;4.430;2023-05-14T15:37:27;4.50;;;3.20;;
55794;SDS011;41716;51.910;4.430;2023-05-14T15:42:37;5.45;;;2.80;;
55794;SDS011;41716;51.910;4.430;2023-05-14T15:47:42;5.28;;;3.20;;
55794;SDS011;41716;51.910;4.430;2023-05-14T15:52:44;6.70;;;3.10;;
55794;SDS011;41716;51.910;4.430;2023-05-14T15:57:46;7.70;;;3.45;;
55794;SDS011;41716;51.910;4.430;2023-05-14T16:02:49;7.57;;;3.92;;
55794;SDS011;41716;51.910;4.430;2023-05-14T16:12:53;9.90;;;3.40;;
55794;SDS011;41716;51.910;4.430;2023-05-14T16:17:56;7.00;;;2.88;;
55794;SDS011;41716;51.910;4.430;2023-05-14T16:22:58;7.07;;;2.70;;
55794;SDS011;41716;51.910;4.430;2023-05-14T16:27:59;7.50;;;2.70;;
55794;SDS011;41716;51.910;4.430;2023-05-14T16:33:02;7.25;;;2.53;;
55794;SDS011;41716;51.910;4.430;2023-05-14T16:43:06;7.85;;;2.95;;
55794;SDS011;41716;51.910;4.430;2023-05-14T16:48:09;7.53;;;3.10;;
55794;SDS011;41716;51.910;4.430;2023-05-14T16:53:11;6.53;;;3.13;;
55794;SDS011;41716;51.910;4.430;2023-05-14T16:58:13;7.53;;;3.00;;
55794;SDS011;41716;51.910;4.430;2023-05-14T17:03:16;5.70;;;3.00;;
55794;SDS011;41716;51.910;4.430;2023-05-14T17:08:18;4.73;;;2.30;;
55794;SDS011;41716;51.910;4.430;2023-05-14T17:13:20;5.45;;;2.40;;
55794;SDS011;41716;51.910;4.430;2023-05-14T17:18:23;6.28;;;2.47;;
55794;SDS011;41716;51.910;4.430;2023-05-14T17:23:24;4.93;;;2.43;;
55794;SDS011;41716;51.910;4.430;2023-05-14T17:28:26;3.92;;;2.47;;
55794;SDS011;41716;51.910;4.430;2023-05-14T17:33:30;4.80;;;2.70;;
55794;SDS011;41716;51.910;4.430;2023-05-14T17:38:31;6.07;;;1.83;;
55794;SDS011;41716;51.910;4.430;2023-05-14T17:43:33;6.63;;;2.22;;
55794;SDS011;41716;51.910;4.430;2023-05-14T17:48:36;5.13;;;2.15;;
55794;SDS011;41716;51.910;4.430;2023-05-14T17:53:38;4.43;;;2.87;;
55794;SDS011;41716;51.910;4.430;2023-05-14T17:58:40;5.03;;;1.85;;
55794;SDS011;41716;51.910;4.430;2023-05-14T18:03:43;6.43;;;2.13;;
55794;SDS011;41716;51.910;4.430;2023-05-14T18:08:45;5.23;;;2.10;;
55794;SDS011;41716;51.910;4.430;2023-05-14T18:13:46;5.75;;;2.35;;
55794;SDS011;41716;51.910;4.430;2023-05-14T18:18:49;6.75;;;2.20;;
55794;SDS011;41716;51.910;4.430;2023-05-14T18:23:51;4.40;;;2.07;;
55794;SDS011;41716;51.910;4.430;2023-05-14T18:28:53;8.02;;;2.03;;
55794;SDS011;41716;51.910;4.430;2023-05-14T18:33:56;3.97;;;1.92;;
55794;SDS011;41716;51.910;4.430;2023-05-14T18:38:58;4.33;;;2.33;;
55794;SDS011;41716;51.910;4.430;2023-05-14T18:43:59;8.15;;;2.22;;
55794;SDS011;41716;51.910;4.430;2023-05-14T18:49:03;6.53;;;2.28;;
55794;SDS011;41716;51.910;4.430;2023-05-14T18:54:05;5.70;;;2.20;;
55794;SDS011;41716;51.910;4.430;2023-05-14T18:59:06;6.00;;;2.50;;
55794;SDS011;41716;51.910;4.430;2023-05-14T19:04:10;5.25;;;2.53;;
55794;SDS011;41716;51.910;4.430;2023-05-14T19:09:12;5.32;;;2.40;;
55794;SDS011;41716;51.910;4.430;2023-05-14T19:14:19;6.80;;;2.38;;
55794;SDS011;41716;51.910;4.430;2023-05-14T19:19:22;7.03;;;2.50;;
55794;SDS011;41716;51.910;4.430;2023-05-14T19:24:24;4.07;;;2.10;;
55794;SDS011;41716;51.910;4.430;2023-05-14T19:29:29;5.20;;;2.15;;
55794;SDS011;41716;51.910;4.430;2023-05-14T19:34:39;5.00;;;2.38;;
55794;SDS011;41716;51.910;4.430;2023-05-14T19:39:47;6.32;;;2.55;;
55794;SDS011;41716;51.910;4.430;2023-05-14T19:44:49;4.43;;;2.38;;
55794;SDS011;41716;51.910;4.430;2023-05-14T19:49:54;9.55;;;2.85;;
55794;SDS011;41716;51.910;4.430;2023-05-14T19:54:56;5.72;;;3.03;;
55794;SDS011;41716;51.910;4.430;2023-05-14T19:59:58;5.15;;;3.17;;
55794;SDS011;41716;51.910;4.430;2023-05-14T20:05:01;6.18;;;3.28;;
55794;SDS011;41716;51.910;4.430;2023-05-14T20:10:06;6.55;;;3.90;;
55794;SDS011;41716;51.910;4.430;2023-05-14T20:15:08;7.25;;;4.45;;
55794;SDS011;41716;51.910;4.430;2023-05-14T20:20:22;8.32;;;4.70;;
55794;SDS011;41716;51.910;4.430;2023-05-14T20:25:37;6.53;;;4.57;;
55794;SDS011;41716;51.910;4.430;2023-05-14T20:31:07;8.77;;;4.63;;
55794;SDS011;41716;51.910;4.430;2023-05-14T20:36:49;6.80;;;4.55;;
55794;SDS011;41716;51.910;4.430;2023-05-14T20:42:05;7.88;;;4.70;;
55794;SDS011;41716;51.910;4.430;2023-05-14T20:47:08;8.13;;;4.43;;
55794;SDS011;41716;51.910;4.430;2023-05-14T20:52:14;8.35;;;4.53;;
55794;SDS011;41716;51.910;4.430;2023-05-14T20:57:24;6.90;;;4.00;;
55794;SDS011;41716;51.910;4.430;2023-05-14T21:02:26;8.43;;;4.80;;
55794;SDS011;41716;51.910;4.430;2023-05-14T21:07:29;7.28;;;5.20;;
55794;SDS011;41716;51.910;4.430;2023-05-14T21:12:31;9.60;;;5.27;;
55794;SDS011;41716;51.910;4.430;2023-05-14T21:17:33;7.18;;;5.32;;
55794;SDS011;41716;51.910;4.430;2023-05-14T21:22:36;7.05;;;4.68;;
55794;SDS011;41716;51.910;4.430;2023-05-14T21:27:39;7.53;;;4.65;;
55794;SDS011;41716;51.910;4.430;2023-05-14T21:32:41;7.82;;;4.30;;
55794;SDS011;41716;51.910;4.430;2023-05-14T21:37:46;8.55;;;4.38;;
55794;SDS011;41716;51.910;4.430;2023-05-14T21:42:51;7.70;;;4.78;;
55794;SDS011;41716;51.910;4.430;2023-05-14T21:47:53;7.00;;;4.18;;
55794;SDS011;41716;51.910;4.430;2023-05-14T21:52:56;9.60;;;4.57;;
55794;SDS011;41716;51.910;4.430;2023-05-14T21:57:58;8.95;;;5.57;;
55794;SDS011;41716;51.910;4.430;2023-05-14T22:03:01;8.90;;;5.83;;
55794;SDS011;41716;51.910;4.430;2023-05-14T22:08:04;12.02;;;5.97;;
55794;SDS011;41716;51.910;4.430;2023-05-14T22:13:06;9.43;;;6.17;;
55794;SDS011;41716;51.910;4.430;2023-05-14T22:18:08;10.45;;;6.25;;
55794;SDS011;41716;51.910;4.430;2023-05-14T22:23:13;10.68;;;5.88;;
55794;SDS011;41716;51.910;4.430;2023-05-14T22:28:14;9.67;;;6.40;;
55794;SDS011;41716;51.910;4.430;2023-05-14T22:33:16;10.05;;;5.90;;
55794;SDS011;41716;51.910;4.430;2023-05-14T22:38:20;9.45;;;6.07;;
55794;SDS011;41716;51.910;4.430;2023-05-14T22:43:22;10.50;;;6.33;;
55794;SDS011;41716;51.910;4.430;2023-05-14T22:48:23;12.20;;;6.45;;
55794;SDS011;41716;51.910;4.430;2023-05-14T22:53:26;11.70;;;7.15;;
55794;SDS011;41716;51.910;4.430;2023-05-14T22:58:28;15.10;;;8.60;;
55794;SDS011;41716;51.910;4.430;2023-05-14T23:03:30;15.98;;;9.43;;
55794;SDS011;41716;51.910;4.430;2023-05-14T23:08:33;14.15;;;9.23;;
55794;SDS011;41716;51.910;4.430;2023-05-14T23:13:34;14.77;;;9.80;;
55794;SDS011;41716;51.910;4.430;2023-05-14T23:18:36;16.92;;;10.48;;
55794;SDS011;41716;51.910;4.430;2023-05-14T23:23:39;15.88;;;9.27;;
55794;SDS011;41716;51.910;4.430;2023-05-14T23:28:41;13.30;;;8.23;;
55794;SDS011;41716;51.910;4.430;2023-05-14T23:33:43;16.42;;;9.82;;
55794;SDS011;41716;51.910;4.430;2023-05-14T23:38:46;11.65;;;8.45;;
55794;SDS011;41716;51.910;4.430;2023-05-14T23:43:48;14.17;;;8.70;;
55794;SDS011;41716;51.910;4.430;2023-05-14T23:48:50;15.45;;;9.27;;
55794;SDS011;41716;51.910;4.430;2023-05-14T23:53:57;12.70;;;8.77;;
55794;SDS011;41716;51.910;4.430;2023-05-14T23:58:58;10.90;;;7.90;;
